Terminal Aerodrome Forecast
Issued by NWS Cleveland, OH

Home | Current Version | Previous Version | Graphics & Text | Print | Product List | Glossary On
Versions: 1 2 3 4 5 6 7 8 9 10 11 12 13 14 15 16 17 18 19 20 21
819
FTUS41 KCLE 230539
TAFTOL
TAF
KTOL 230539Z 2306/2406 08010KT P6SM OVC007
     FM230900 10007KT P6SM VCSH OVC003
     FM231200 13007KT 1SM RA BR OVC003
     FM231700 23010KT P6SM OVC007
     FM232000 25012KT P6SM OVC010
     FM240500 31006KT P6SM BKN050=

USA.gov is the U.S. government's official web portal to all federal, state and local government web resources and services.